EZY58B EGKK-EHRD
Flight info
| Callsign | EZY58B |
|---|---|
| Flight time | 0h 45m |
| Altitude | 23000 |
| Route | FRANE M604 GASBA M197 REDFA |
| Aircraft | A20N/M-SDE2E3FGHIRWXY/LB1 |
Departure
| Time | 2026-04-15 10:05 |
|---|---|
| Airport | London Gatwick Airport (EGKK) |
Arrival
| Time | 2026-04-15 10:51 |
|---|---|
| Airport | Rotterdam The Hague Airport (EHRD) |
| Time | Latitude | Longitude | Altitude | Speed | Heading |
|---|---|---|---|---|---|
| 2026-04-15 09:41 | 51.15431 | -0.17703 | 204 ft | 0 kts | 167° |
| 2026-04-15 09:54 | 51.15433 | -0.17704 | 213 ft | 1 kts | 167° |
| 2026-04-15 09:54 | 51.15441 | -0.17706 | 210 ft | 1 kts | 167° |
| 2026-04-15 09:54 | 51.15449 | -0.17709 | 204 ft | 1 kts | 167° |
| 2026-04-15 09:54 | 51.15456 | -0.17712 | 204 ft | 1 kts | 167° |
| 2026-04-15 09:55 | 51.15464 | -0.17715 | 204 ft | 1 kts | 166° |
| 2026-04-15 09:55 | 51.15471 | -0.17717 | 204 ft | 1 kts | 166° |
| 2026-04-15 09:55 | 51.15479 | -0.17720 | 207 ft | 1 kts | 166° |
| 2026-04-15 09:55 | 51.15486 | -0.17723 | 210 ft | 1 kts | 163° |
| 2026-04-15 09:56 | 51.15493 | -0.17727 | 212 ft | 1 kts | 147° |
| 2026-04-15 09:56 | 51.15500 | -0.17734 | 209 ft | 1 kts | 132° |
| 2026-04-15 09:56 | 51.15507 | -0.17755 | 212 ft | 1 kts | 82° |
| 2026-04-15 09:57 | 51.15507 | -0.17757 | 211 ft | 0 kts | 78° |
| 2026-04-15 09:59 | 51.15516 | -0.17680 | 214 ft | 12 kts | 79° |
| 2026-04-15 09:59 | 51.15535 | -0.17527 | 210 ft | 16 kts | 77° |
| 2026-04-15 10:00 | 51.15506 | -0.17428 | 204 ft | 11 kts | 159° |
| 2026-04-15 10:00 | 51.15430 | -0.17401 | 213 ft | 12 kts | 168° |
| 2026-04-15 10:00 | 51.15346 | -0.17373 | 208 ft | 13 kts | 168° |
| 2026-04-15 10:00 | 51.15261 | -0.17328 | 214 ft | 13 kts | 142° |
| 2026-04-15 10:01 | 51.15250 | -0.17195 | 210 ft | 13 kts | 77° |
| 2026-04-15 10:01 | 51.15274 | -0.17048 | 214 ft | 15 kts | 75° |
| 2026-04-15 10:01 | 51.15294 | -0.16901 | 207 ft | 12 kts | 83° |
| 2026-04-15 10:01 | 51.15269 | -0.16829 | 207 ft | 0 kts | 156° |
| 2026-04-15 10:02 | 51.15264 | -0.16826 | 207 ft | 2 kts | 158° |
| 2026-04-15 10:03 | 51.15236 | -0.16813 | 210 ft | 9 kts | 165° |
| 2026-04-15 10:03 | 51.15160 | -0.16798 | 208 ft | 12 kts | 191° |
| 2026-04-15 10:03 | 51.15107 | -0.16901 | 210 ft | 9 kts | 253° |
| 2026-04-15 10:03 | 51.15106 | -0.16907 | 209 ft | 0 kts | 255° |
| 2026-04-15 10:04 | 51.15096 | -0.16969 | 217 ft | 29 kts | 256° |
| 2026-04-15 10:04 | 51.15001 | -0.17659 | 213 ft | 96 kts | 258° |
| 2026-04-15 10:05 | 51.14813 | -0.18978 | 214 ft | 146 kts | 257° |
| 2026-04-15 10:05 | 51.14615 | -0.20646 | 679 ft | 147 kts | 257° |
| 2026-04-15 10:05 | 51.14499 | -0.22200 | 1512 ft | 138 kts | 259° |
| 2026-04-15 10:05 | 51.14326 | -0.23723 | 2130 ft | 146 kts | 251° |
| 2026-04-15 10:06 | 51.14036 | -0.25357 | 2602 ft | 160 kts | 249° |
| 2026-04-15 10:06 | 51.13717 | -0.27159 | 3031 ft | 179 kts | 251° |
| 2026-04-15 10:06 | 51.13741 | -0.29298 | 3305 ft | 215 kts | 285° |
| 2026-04-15 10:06 | 51.14639 | -0.31325 | 3786 ft | 240 kts | 317° |
| 2026-04-15 10:07 | 51.16170 | -0.32477 | 4006 ft | 251 kts | 347° |
| 2026-04-15 10:07 | 51.17904 | -0.32300 | 3996 ft | 253 kts | 20° |
| 2026-04-15 10:07 | 51.19371 | -0.30753 | 4001 ft | 256 kts | 52° |
| 2026-04-15 10:07 | 51.20158 | -0.28314 | 3999 ft | 244 kts | 82° |
| 2026-04-15 10:08 | 51.20368 | -0.25651 | 3998 ft | 243 kts | 91° |
| 2026-04-15 10:08 | 51.20468 | -0.22957 | 4000 ft | 244 kts | 91° |
| 2026-04-15 10:08 | 51.20627 | -0.20269 | 4000 ft | 245 kts | 88° |
| 2026-04-15 10:08 | 51.20887 | -0.17390 | 4002 ft | 275 kts | 84° |
| 2026-04-15 10:09 | 51.21520 | -0.14492 | 3997 ft | 281 kts | 60° |
| 2026-04-15 10:09 | 51.22864 | -0.12204 | 4003 ft | 287 kts | 41° |
| 2026-04-15 10:09 | 51.24401 | -0.10174 | 4008 ft | 288 kts | 41° |
| 2026-04-15 10:09 | 51.25949 | -0.08129 | 4351 ft | 290 kts | 41° |
| 2026-04-15 10:10 | 51.27505 | -0.06071 | 5262 ft | 291 kts | 41° |
| 2026-04-15 10:10 | 51.29067 | -0.04006 | 6401 ft | 293 kts | 41° |
| 2026-04-15 10:10 | 51.30649 | -0.01910 | 7399 ft | 298 kts | 41° |
| 2026-04-15 10:10 | 51.32262 | 0.00233 | 8337 ft | 305 kts | 41° |
| 2026-04-15 10:11 | 51.33904 | 0.02422 | 9316 ft | 310 kts | 41° |
| 2026-04-15 10:11 | 51.35578 | 0.04655 | 10251 ft | 317 kts | 41° |
| 2026-04-15 10:11 | 51.37316 | 0.06983 | 10776 ft | 337 kts | 41° |
| 2026-04-15 10:11 | 51.39172 | 0.09491 | 11145 ft | 361 kts | 41° |
| 2026-04-15 10:12 | 51.41116 | 0.12133 | 11816 ft | 370 kts | 41° |
| 2026-04-15 10:12 | 51.43080 | 0.14823 | 12696 ft | 373 kts | 41° |
| 2026-04-15 10:12 | 51.45031 | 0.17617 | 13560 ft | 378 kts | 45° |
| 2026-04-15 10:12 | 51.46894 | 0.20632 | 14369 ft | 382 kts | 46° |
| 2026-04-15 10:13 | 51.48757 | 0.23709 | 15136 ft | 387 kts | 46° |
| 2026-04-15 10:13 | 51.50638 | 0.26829 | 15856 ft | 392 kts | 46° |
| 2026-04-15 10:13 | 51.52550 | 0.29998 | 16582 ft | 397 kts | 46° |
| 2026-04-15 10:13 | 51.54483 | 0.33198 | 17320 ft | 402 kts | 46° |
| 2026-04-15 10:14 | 51.56441 | 0.36437 | 18054 ft | 407 kts | 46° |
| 2026-04-15 10:14 | 51.58425 | 0.39721 | 18737 ft | 411 kts | 46° |
| 2026-04-15 10:14 | 51.60425 | 0.43035 | 19378 ft | 415 kts | 46° |
| 2026-04-15 10:14 | 51.62442 | 0.46382 | 20009 ft | 419 kts | 46° |
| 2026-04-15 10:15 | 51.64479 | 0.49769 | 20648 ft | 422 kts | 46° |
| 2026-04-15 10:15 | 51.66507 | 0.53144 | 21232 ft | 427 kts | 46° |
| 2026-04-15 10:15 | 51.68580 | 0.56598 | 21858 ft | 430 kts | 46° |
| 2026-04-15 10:15 | 51.70670 | 0.60087 | 22472 ft | 434 kts | 46° |
| 2026-04-15 10:16 | 51.72775 | 0.63606 | 22930 ft | 437 kts | 46° |
| 2026-04-15 10:16 | 51.74889 | 0.67144 | 23059 ft | 438 kts | 45° |
| 2026-04-15 10:16 | 51.77008 | 0.70695 | 23071 ft | 438 kts | 46° |
| 2026-04-15 10:16 | 51.79116 | 0.74233 | 23075 ft | 437 kts | 46° |
| 2026-04-15 10:17 | 51.81221 | 0.77771 | 23071 ft | 436 kts | 45° |
| 2026-04-15 10:17 | 51.83304 | 0.81324 | 23065 ft | 436 kts | 49° |
| 2026-04-15 10:17 | 51.84973 | 0.85389 | 23067 ft | 435 kts | 65° |
| 2026-04-15 10:17 | 51.85966 | 0.89993 | 23068 ft | 433 kts | 78° |
| 2026-04-15 10:18 | 51.86572 | 0.94769 | 23065 ft | 432 kts | 81° |
| 2026-04-15 10:18 | 51.87167 | 0.99534 | 23065 ft | 432 kts | 79° |
| 2026-04-15 10:18 | 51.87855 | 1.04262 | 23065 ft | 432 kts | 77° |
| 2026-04-15 10:18 | 51.88625 | 1.08962 | 23071 ft | 432 kts | 75° |
| 2026-04-15 10:19 | 51.89441 | 1.13640 | 23069 ft | 432 kts | 75° |
| 2026-04-15 10:19 | 51.90279 | 1.18315 | 23070 ft | 432 kts | 75° |
| 2026-04-15 10:19 | 51.91121 | 1.22984 | 23070 ft | 432 kts | 75° |
| 2026-04-15 10:19 | 51.91950 | 1.27586 | 23076 ft | 432 kts | 75° |
| 2026-04-15 10:20 | 51.92786 | 1.32254 | 23079 ft | 431 kts | 75° |
| 2026-04-15 10:20 | 51.93620 | 1.36922 | 23081 ft | 431 kts | 75° |
| 2026-04-15 10:20 | 51.94450 | 1.41587 | 23087 ft | 431 kts | 75° |
| 2026-04-15 10:20 | 51.95277 | 1.46252 | 23092 ft | 431 kts | 75° |
| 2026-04-15 10:21 | 51.96103 | 1.50923 | 23090 ft | 431 kts | 75° |
| 2026-04-15 10:21 | 51.96927 | 1.55596 | 23088 ft | 431 kts | 75° |
| 2026-04-15 10:21 | 51.97749 | 1.60266 | 23092 ft | 430 kts | 75° |
| 2026-04-15 10:21 | 51.98567 | 1.64928 | 23099 ft | 430 kts | 75° |
| 2026-04-15 10:22 | 51.99384 | 1.69604 | 23090 ft | 430 kts | 75° |
| 2026-04-15 10:22 | 52.00144 | 1.74291 | 23094 ft | 430 kts | 76° |
| 2026-04-15 10:22 | 52.00865 | 1.79000 | 23097 ft | 430 kts | 77° |
| 2026-04-15 10:22 | 52.01580 | 1.83713 | 23105 ft | 430 kts | 76° |
| 2026-04-15 10:23 | 52.02298 | 1.88428 | 23100 ft | 430 kts | 76° |
| 2026-04-15 10:23 | 52.03019 | 1.93131 | 23103 ft | 430 kts | 76° |
| 2026-04-15 10:23 | 52.03743 | 1.97847 | 23106 ft | 430 kts | 76° |
| 2026-04-15 10:23 | 52.04465 | 2.02552 | 23103 ft | 430 kts | 76° |
| 2026-04-15 10:24 | 52.05187 | 2.07266 | 22898 ft | 429 kts | 76° |
| 2026-04-15 10:24 | 52.05904 | 2.11955 | 22636 ft | 426 kts | 76° |
| 2026-04-15 10:24 | 52.06614 | 2.16618 | 22366 ft | 424 kts | 76° |
| 2026-04-15 10:24 | 52.07320 | 2.21263 | 22113 ft | 422 kts | 76° |
| 2026-04-15 10:25 | 52.08021 | 2.25893 | 21853 ft | 421 kts | 76° |
| 2026-04-15 10:25 | 52.08717 | 2.30507 | 21596 ft | 418 kts | 76° |
| 2026-04-15 10:25 | 52.09407 | 2.35088 | 21335 ft | 417 kts | 76° |
| 2026-04-15 10:25 | 52.10094 | 2.39663 | 21087 ft | 415 kts | 76° |
| 2026-04-15 10:26 | 52.10747 | 2.44229 | 20728 ft | 415 kts | 81° |
| 2026-04-15 10:26 | 52.10846 | 2.48901 | 20164 ft | 413 kts | 97° |
| 2026-04-15 10:26 | 52.10177 | 2.53395 | 19604 ft | 407 kts | 114° |
| 2026-04-15 10:26 | 52.09029 | 2.57571 | 19046 ft | 403 kts | 116° |
| 2026-04-15 10:27 | 52.07868 | 2.61702 | 18474 ft | 399 kts | 116° |
| 2026-04-15 10:27 | 52.06721 | 2.65787 | 17881 ft | 395 kts | 116° |
| 2026-04-15 10:27 | 52.05588 | 2.69823 | 17328 ft | 390 kts | 116° |
| 2026-04-15 10:27 | 52.04470 | 2.73807 | 16781 ft | 386 kts | 116° |
| 2026-04-15 10:28 | 52.03362 | 2.77750 | 16231 ft | 381 kts | 116° |
| 2026-04-15 10:28 | 52.02265 | 2.81648 | 15691 ft | 378 kts | 116° |
| 2026-04-15 10:28 | 52.01192 | 2.85456 | 15161 ft | 374 kts | 117° |
| 2026-04-15 10:28 | 52.00110 | 2.89288 | 14625 ft | 371 kts | 117° |
| 2026-04-15 10:29 | 51.99038 | 2.93079 | 14079 ft | 369 kts | 117° |
| 2026-04-15 10:29 | 51.97971 | 2.96843 | 13524 ft | 365 kts | 117° |
| 2026-04-15 10:29 | 51.96914 | 3.00568 | 12989 ft | 361 kts | 117° |
| 2026-04-15 10:29 | 51.95871 | 3.04242 | 12481 ft | 357 kts | 117° |
| 2026-04-15 10:30 | 51.94837 | 3.07875 | 11962 ft | 353 kts | 117° |
| 2026-04-15 10:30 | 51.93811 | 3.11473 | 11452 ft | 350 kts | 117° |
| 2026-04-15 10:30 | 51.92792 | 3.15040 | 10947 ft | 347 kts | 117° |
| 2026-04-15 10:30 | 51.91784 | 3.18570 | 10492 ft | 343 kts | 117° |
| 2026-04-15 10:31 | 51.90800 | 3.22008 | 10346 ft | 329 kts | 117° |
| 2026-04-15 10:31 | 51.89858 | 3.25301 | 10217 ft | 315 kts | 117° |
| 2026-04-15 10:31 | 51.88953 | 3.28455 | 10051 ft | 304 kts | 117° |
| 2026-04-15 10:31 | 51.88067 | 3.31538 | 9695 ft | 299 kts | 117° |
| 2026-04-15 10:32 | 51.87197 | 3.34557 | 9374 ft | 294 kts | 117° |
| 2026-04-15 10:32 | 51.86339 | 3.37536 | 8990 ft | 291 kts | 117° |
| 2026-04-15 10:32 | 51.85488 | 3.40486 | 8615 ft | 288 kts | 117° |
| 2026-04-15 10:32 | 51.84644 | 3.43407 | 8239 ft | 285 kts | 117° |
| 2026-04-15 10:33 | 51.83806 | 3.46303 | 7868 ft | 283 kts | 117° |
| 2026-04-15 10:33 | 51.82977 | 3.49167 | 7501 ft | 281 kts | 117° |
| 2026-04-15 10:33 | 51.82150 | 3.52020 | 7126 ft | 279 kts | 118° |
| 2026-04-15 10:33 | 51.81339 | 3.54815 | 6766 ft | 277 kts | 118° |
| 2026-04-15 10:34 | 51.80533 | 3.57639 | 6395 ft | 276 kts | 114° |
| 2026-04-15 10:34 | 51.80140 | 3.60671 | 6029 ft | 278 kts | 93° |
| 2026-04-15 10:34 | 51.80369 | 3.63753 | 5942 ft | 281 kts | 81° |
| 2026-04-15 10:34 | 51.80715 | 3.66864 | 5877 ft | 281 kts | 82° |
| 2026-04-15 10:35 | 51.81047 | 3.69965 | 5775 ft | 279 kts | 82° |
| 2026-04-15 10:35 | 51.81374 | 3.73058 | 5664 ft | 278 kts | 82° |
| 2026-04-15 10:35 | 51.81697 | 3.76134 | 5551 ft | 278 kts | 82° |
| 2026-04-15 10:35 | 51.82019 | 3.79217 | 5442 ft | 277 kts | 82° |
| 2026-04-15 10:36 | 51.82340 | 3.82285 | 5332 ft | 276 kts | 82° |
| 2026-04-15 10:36 | 51.82658 | 3.85335 | 5223 ft | 275 kts | 82° |
| 2026-04-15 10:36 | 51.82976 | 3.88385 | 5120 ft | 275 kts | 82° |
| 2026-04-15 10:36 | 51.83292 | 3.91427 | 5007 ft | 275 kts | 82° |
| 2026-04-15 10:37 | 51.83608 | 3.94482 | 4901 ft | 275 kts | 82° |
| 2026-04-15 10:37 | 51.83919 | 3.97501 | 4791 ft | 272 kts | 83° |
| 2026-04-15 10:37 | 51.84232 | 4.00532 | 4689 ft | 272 kts | 82° |
| 2026-04-15 10:37 | 51.84546 | 4.03548 | 4582 ft | 272 kts | 82° |
| 2026-04-15 10:38 | 51.84855 | 4.06559 | 4477 ft | 271 kts | 82° |
| 2026-04-15 10:38 | 51.85163 | 4.09570 | 4367 ft | 272 kts | 82° |
| 2026-04-15 10:38 | 51.85470 | 4.12544 | 4262 ft | 271 kts | 83° |
| 2026-04-15 10:38 | 51.85774 | 4.15526 | 4154 ft | 268 kts | 83° |
| 2026-04-15 10:39 | 51.86071 | 4.18507 | 4063 ft | 268 kts | 83° |
| 2026-04-15 10:39 | 51.86371 | 4.21485 | 3799 ft | 269 kts | 83° |
| 2026-04-15 10:39 | 51.86666 | 4.24444 | 3679 ft | 265 kts | 83° |
| 2026-04-15 10:39 | 51.86966 | 4.27413 | 3573 ft | 268 kts | 83° |
| 2026-04-15 10:40 | 51.87266 | 4.30378 | 3464 ft | 266 kts | 83° |
| 2026-04-15 10:40 | 51.87564 | 4.33321 | 3357 ft | 266 kts | 83° |
| 2026-04-15 10:40 | 51.87858 | 4.36265 | 3253 ft | 264 kts | 83° |
| 2026-04-15 10:40 | 51.88152 | 4.39206 | 3147 ft | 265 kts | 83° |
| 2026-04-15 10:41 | 51.88451 | 4.42152 | 3041 ft | 265 kts | 82° |
| 2026-04-15 10:41 | 51.88746 | 4.45092 | 2932 ft | 264 kts | 83° |
| 2026-04-15 10:41 | 51.89033 | 4.48020 | 2827 ft | 264 kts | 83° |
| 2026-04-15 10:41 | 51.89323 | 4.50959 | 2727 ft | 264 kts | 83° |
| 2026-04-15 10:42 | 51.89638 | 4.53877 | 2618 ft | 265 kts | 77° |
| 2026-04-15 10:42 | 51.90369 | 4.56609 | 2516 ft | 266 kts | 58° |
| 2026-04-15 10:42 | 51.91516 | 4.58982 | 2405 ft | 267 kts | 51° |
| 2026-04-15 10:42 | 51.92688 | 4.61302 | 2298 ft | 266 kts | 52° |
| 2026-04-15 10:43 | 51.93850 | 4.63632 | 2192 ft | 266 kts | 52° |
| 2026-04-15 10:43 | 51.94998 | 4.65944 | 2093 ft | 265 kts | 52° |
| 2026-04-15 10:43 | 51.96156 | 4.68272 | 2020 ft | 265 kts | 51° |
| 2026-04-15 10:43 | 51.97295 | 4.70559 | 2001 ft | 253 kts | 51° |
| 2026-04-15 10:44 | 51.98367 | 4.72713 | 2002 ft | 238 kts | 52° |
| 2026-04-15 10:44 | 51.99374 | 4.74738 | 1993 ft | 223 kts | 52° |
| 2026-04-15 10:44 | 52.00465 | 4.76350 | 2039 ft | 204 kts | 26° |
| 2026-04-15 10:44 | 52.01770 | 4.76729 | 2013 ft | 183 kts | 353° |
| 2026-04-15 10:45 | 52.03005 | 4.76576 | 1992 ft | 171 kts | 353° |
| 2026-04-15 10:45 | 52.04089 | 4.76256 | 1983 ft | 151 kts | 326° |
| 2026-04-15 10:45 | 52.04750 | 4.75051 | 2012 ft | 146 kts | 285° |
| 2026-04-15 10:45 | 52.04789 | 4.73501 | 2010 ft | 139 kts | 260° |
| 2026-04-15 10:46 | 52.04698 | 4.71933 | 2004 ft | 138 kts | 262° |
| 2026-04-15 10:46 | 52.04623 | 4.70346 | 2009 ft | 150 kts | 263° |
| 2026-04-15 10:46 | 52.04545 | 4.68596 | 1993 ft | 156 kts | 263° |
| 2026-04-15 10:46 | 52.04444 | 4.66866 | 1994 ft | 152 kts | 256° |
| 2026-04-15 10:47 | 52.04094 | 4.65239 | 1999 ft | 154 kts | 242° |
| 2026-04-15 10:47 | 52.03562 | 4.63724 | 2004 ft | 152 kts | 236° |
| 2026-04-15 10:47 | 52.02994 | 4.62302 | 2002 ft | 151 kts | 236° |
| 2026-04-15 10:47 | 52.02412 | 4.60843 | 1995 ft | 152 kts | 236° |
| 2026-04-15 10:48 | 52.01840 | 4.59403 | 1994 ft | 153 kts | 236° |
| 2026-04-15 10:48 | 52.01254 | 4.57941 | 1836 ft | 152 kts | 236° |
| 2026-04-15 10:48 | 52.00715 | 4.56581 | 1651 ft | 135 kts | 236° |
| 2026-04-15 10:48 | 52.00220 | 4.55349 | 1679 ft | 129 kts | 235° |
| 2026-04-15 10:49 | 51.99720 | 4.54098 | 1716 ft | 134 kts | 235° |
| 2026-04-15 10:49 | 51.99208 | 4.52818 | 1337 ft | 137 kts | 234° |
| 2026-04-15 10:49 | 51.98686 | 4.51511 | 1010 ft | 137 kts | 236° |
| 2026-04-15 10:49 | 51.98168 | 4.50220 | 756 ft | 134 kts | 234° |
| 2026-04-15 10:50 | 51.97681 | 4.48996 | 574 ft | 124 kts | 232° |
| 2026-04-15 10:50 | 51.97222 | 4.47853 | 419 ft | 125 kts | 232° |
| 2026-04-15 10:50 | 51.96907 | 4.47068 | 310 ft | 124 kts | 233° |
| 2026-04-15 10:50 | 51.96446 | 4.45891 | 109 ft | 125 kts | 232° |
| 2026-04-15 10:51 | 51.95832 | 4.44405 | -5 ft | 100 kts | 237° |
| 2026-04-15 10:51 | 51.95592 | 4.43821 | -5 ft | 46 kts | 235° |
| 2026-04-15 10:51 | 51.95396 | 4.43515 | -5 ft | 27 kts | 218° |
| 2026-04-15 10:51 | 51.95340 | 4.43451 | -5 ft | 0 kts | 216° |
| 2026-04-15 10:52 | 51.95291 | 4.43418 | -6 ft | 12 kts | 182° |
| 2026-04-15 10:52 | 51.95237 | 4.43444 | -6 ft | 13 kts | 151° |
| 2026-04-15 10:52 | 51.95167 | 4.43488 | -6 ft | 9 kts | 191° |
| 2026-04-15 10:52 | 51.95159 | 4.43437 | -6 ft | 4 kts | 326° |
| 2026-04-15 10:53 | 51.95182 | 4.43410 | -6 ft | 0 kts | 325° |
| 2026-04-15 10:53 | 51.95189 | 4.43402 | -6 ft | 0 kts | 326° |